Time;durP1;ratioP1;P1;durP2;ratioP2;P2;SDS_P1;SDS_P2;PMS_P1;PMS_P2;Temp;Humidity;BMP_temperature;BMP_pressure;BME280_temperature;BME280_humidity;BME280_pressure;Samples;Min_cycle;Max_cycle;Signal;HPM_P1;HPM_P2
2023/04/15 00:02:19;;;;;;;22.17;14.25;;;;;;;9.29;64.27;100662.41;5070987;28;20115;-43
2023/04/15 00:04:46;;;;;;;22.60;13.57;;;;;;;9.31;64.30;100673.94;5073203;28;20520;-46
2023/04/15 00:07:11;;;;;;;23.23;13.45;;;;;;;9.27;64.86;100672.09;5073855;28;20041;-45
2023/04/15 00:09:37;;;;;;;20.88;14.00;;;;;;;9.24;64.75;100667.19;5074060;28;20031;-47
2023/04/15 00:12:02;;;;;;;21.17;13.90;;;;;;;9.21;64.86;100677.72;5074102;28;20036;-46
2023/04/15 00:14:28;;;;;;;21.90;13.52;;;;;;;9.17;64.69;100673.91;5073014;28;20029;-45
2023/04/15 00:16:55;;;;;;;21.48;13.77;;;;;;;9.14;64.83;100673.69;5073595;28;20086;-45
2023/04/15 00:19:20;;;;;;;21.88;13.60;;;;;;;9.00;65.21;100655.16;5073970;28;20030;-47
2023/04/15 00:21:46;;;;;;;23.02;14.23;;;;;;;9.10;65.07;100672.66;5073675;28;20115;-47
2023/04/15 00:24:12;;;;;;;21.90;13.88;;;;;;;9.05;64.91;100668.06;5073915;28;20025;-46
2023/04/15 00:26:38;;;;;;;21.85;13.07;;;;;;;8.99;65.23;100667.31;5073815;28;20032;-46
2023/04/15 00:29:03;;;;;;;22.92;13.88;;;;;;;9.01;65.52;100667.84;5073660;28;20024;-47
2023/04/15 00:31:30;;;;;;;22.92;14.10;;;;;;;9.01;65.96;100669.75;5073594;28;20367;-44
2023/04/15 00:33:55;;;;;;;19.73;13.45;;;;;;;8.98;65.76;100671.19;5073618;28;20095;-47
2023/04/15 00:36:22;;;;;;;22.40;14.48;;;;;;;8.94;65.70;100672.88;5073525;28;20565;-44
2023/04/15 00:38:47;;;;;;;22.85;14.38;;;;;;;8.90;65.41;100669.09;5073455;28;20056;-44
2023/04/15 00:41:13;;;;;;;20.52;13.77;;;;;;;8.91;65.26;100676.25;5073490;28;20039;-43
2023/04/15 00:43:38;;;;;;;22.08;14.02;;;;;;;8.90;65.92;100675.44;5073353;28;20077;-44
2023/04/15 00:46:04;;;;;;;22.20;14.40;;;;;;;8.90;65.74;100678.19;5073436;28;20489;-46
2023/04/15 00:48:31;;;;;;;21.48;14.35;;;;;;;8.84;66.03;100673.88;5073037;28;20032;-44
2023/04/15 00:50:56;;;;;;;21.23;14.65;;;;;;;8.84;66.22;100678.56;5073062;28;20059;-46
2023/04/15 00:53:22;;;;;;;21.30;14.98;;;;;;;8.83;66.14;100682.47;5072791;28;20052;-43
2023/04/15 00:55:47;;;;;;;21.33;14.32;;;;;;;8.85;66.27;100680.19;5071563;28;20028;-45
2023/04/15 00:58:13;;;;;;;21.23;13.93;;;;;;;8.82;66.11;100683.56;5069794;28;20031;-43
2023/04/15 01:00:39;;;;;;;20.85;13.55;;;;;;;8.77;66.06;100672.59;5070594;28;20029;-46
2023/04/15 01:03:05;;;;;;;20.48;13.25;;;;;;;8.80;66.68;100675.59;5072812;28;20016;-43
2023/04/15 01:05:30;;;;;;;22.77;14.40;;;;;;;8.76;66.56;100679.22;5072716;28;20493;-43
2023/04/15 01:07:56;;;;;;;20.90;13.10;;;;;;;8.77;66.41;100680.88;5072798;28;20144;-45
2023/04/15 01:10:21;;;;;;;21.75;14.10;;;;;;;8.69;66.56;100668.59;5072630;28;20025;-46
2023/04/15 01:12:47;;;;;;;19.75;13.82;;;;;;;8.73;66.73;100675.97;5072592;28;20119;-46
2023/04/15 01:15:12;;;;;;;22.98;14.57;;;;;;;8.66;66.91;100675.50;5072550;28;20107;-44
2023/04/15 01:17:38;;;;;;;21.20;14.05;;;;;;;8.63;67.12;100678.88;5071288;28;20036;-45
2023/04/15 01:20:05;;;;;;;20.90;13.77;;;;;;;8.61;67.20;100677.50;5072760;28;20481;-44
2023/04/15 01:22:32;;;;;;;20.60;14.27;;;;;;;8.57;67.51;100671.78;5072599;28;20574;-46
2023/04/15 01:25:11;;;;;;;20.58;14.27;;;;;;;8.55;67.58;100674.00;5072699;28;20046;-45
2023/04/15 01:27:39;;;;;;;20.88;15.20;;;;;;;8.55;67.50;100674.00;5072466;28;20028;-47
2023/04/15 01:30:06;;;;;;;22.30;14.68;;;;;;;8.56;67.88;100678.41;5072400;28;20504;-44
2023/04/15 01:32:32;;;;;;;21.98;14.68;;;;;;;8.51;67.33;100679.28;5072024;28;20163;-46
2023/04/15 01:34:57;;;;;;;21.05;14.95;;;;;;;8.51;67.80;100672.97;5072531;28;20036;-43
2023/04/15 01:37:23;;;;;;;21.88;14.32;;;;;;;8.49;67.63;100669.69;5071092;28;20508;-44
2023/04/15 01:39:48;;;;;;;21.45;14.60;;;;;;;8.46;67.77;100673.00;5071960;28;20056;-43
2023/04/15 01:42:14;;;;;;;21.95;14.68;;;;;;;8.39;67.87;100668.66;5072272;28;20103;-43
2023/04/15 01:44:39;;;;;;;22.75;14.85;;;;;;;8.37;67.85;100665.38;5072166;28;20036;-43
2023/04/15 01:47:05;;;;;;;22.85;15.23;;;;;;;8.33;68.30;100663.50;5072060;28;20028;-44
2023/04/15 01:49:31;;;;;;;21.90;15.75;;;;;;;8.33;68.31;100672.63;5072432;28;20032;-45
2023/04/15 01:51:56;;;;;;;21.85;15.07;;;;;;;8.30;68.37;100669.63;5071942;28;20036;-46
2023/04/15 01:54:22;;;;;;;26.23;14.75;;;;;;;8.25;68.59;100665.81;5066485;28;20043;-43
2023/04/15 01:56:47;;;;;;;20.73;14.35;;;;;;;8.22;68.72;100674.66;5071903;28;20032;-44
2023/04/15 01:59:13;;;;;;;21.13;14.77;;;;;;;8.20;69.07;100678.84;5071945;28;20020;-43
2023/04/15 02:01:38;;;;;;;22.38;14.68;;;;;;;8.16;69.31;100681.38;5071804;28;20107;-43
2023/04/15 02:04:04;;;;;;;22.27;14.52;;;;;;;8.11;69.34;100682.25;5071856;28;20055;-44
2023/04/15 02:06:29;;;;;;;20.35;14.48;;;;;;;8.09;69.52;100686.41;5071805;28;20386;-43
2023/04/15 02:08:54;;;;;;;22.05;14.57;;;;;;;8.03;69.33;100691.16;5072059;28;20067;-44
2023/04/15 02:11:19;;;;;;;21.88;14.93;;;;;;;8.03;70.03;100687.59;5071661;28;20386;-45
2023/04/15 02:13:45;;;;;;;23.23;14.80;;;;;;;8.00;70.53;100679.91;5071734;28;20528;-44
2023/04/15 02:16:17;;;;;;;21.02;14.80;;;;;;;8.04;70.39;100684.53;5053712;28;20024;-43
2023/04/15 02:18:46;;;;;;;21.85;14.88;;;;;;;7.99;70.77;100681.81;5071756;28;20029;-44
2023/04/15 02:21:12;;;;;;;22.48;14.98;;;;;;;7.97;70.76;100681.31;5071723;28;20504;-44
2023/04/15 02:23:37;;;;;;;23.10;14.73;;;;;;;8.01;70.35;100687.88;5071715;28;20107;-44
2023/04/15 02:26:03;;;;;;;20.95;14.73;;;;;;;8.04;70.65;100687.28;5071669;28;20547;-45
2023/04/15 02:28:28;;;;;;;21.75;13.48;;;;;;;8.00;70.61;100685.41;5071455;28;20032;-43
2023/04/15 02:30:56;;;;;;;20.88;13.75;;;;;;;8.05;71.26;100688.94;5071418;28;20884;-43
2023/04/15 02:33:21;;;;;;;22.30;14.93;;;;;;;8.07;71.32;100686.72;5071550;28;20471;-43
2023/04/15 02:35:47;;;;;;;21.65;14.57;;;;;;;8.11;71.72;100690.50;5070357;28;20493;-43
2023/04/15 02:38:13;;;;;;;21.00;14.52;;;;;;;8.11;72.26;100693.25;5076364;28;20087;-46
2023/04/15 02:40:39;;;;;;;21.05;15.55;;;;;;;8.06;71.17;100693.34;5077991;28;20078;-43
2023/04/15 02:43:05;;;;;;;22.98;15.35;;;;;;;8.03;71.30;100693.09;5078143;28;20027;-46
2023/04/15 02:45:31;;;;;;;20.75;14.73;;;;;;;8.00;72.47;100690.94;5078102;28;20393;-44
2023/04/15 02:47:57;;;;;;;20.98;14.93;;;;;;;8.04;71.74;100695.56;5076845;28;20533;-43
2023/04/15 02:50:24;;;;;;;20.98;14.88;;;;;;;7.97;71.54;100698.66;5074218;28;20045;-43
2023/04/15 02:52:50;;;;;;;21.50;14.45;;;;;;;7.95;72.01;100695.38;5077985;28;20039;-43
2023/04/15 02:55:16;;;;;;;22.00;14.60;;;;;;;7.93;71.61;100702.28;5077590;28;20033;-45
2023/04/15 02:57:42;;;;;;;21.52;14.63;;;;;;;7.89;72.28;100706.72;5077646;28;20028;-44
2023/04/15 03:00:10;;;;;;;20.35;14.07;;;;;;;7.85;72.30;100700.97;5076347;28;20035;-45
2023/04/15 03:02:36;;;;;;;22.25;15.13;;;;;;;7.81;72.28;100699.94;5077723;28;20584;-44
2023/04/15 03:05:02;;;;;;;21.42;15.00;;;;;;;7.80;72.58;100701.84;5077729;28;20118;-43
2023/04/15 03:07:27;;;;;;;21.40;15.27;;;;;;;7.81;73.13;100702.69;5077937;28;20108;-44
2023/04/15 03:09:53;;;;;;;22.23;14.50;;;;;;;7.80;72.68;100703.78;5077896;28;20033;-47
2023/04/15 03:12:18;;;;;;;23.77;15.18;;;;;;;7.78;72.90;100709.59;5077403;28;20031;-45
2023/04/15 03:14:43;;;;;;;20.67;15.18;;;;;;;7.74;73.13;100705.78;5077598;28;20031;-45
2023/04/15 03:17:09;;;;;;;21.52;15.70;;;;;;;7.69;73.20;100705.84;5076319;28;20524;-45
2023/04/15 03:19:34;;;;;;;21.23;15.00;;;;;;;7.69;73.38;100710.50;5077747;28;20035;-44
2023/04/15 03:21:59;;;;;;;21.83;15.23;;;;;;;7.69;73.94;100705.84;5077708;28;20064;-47
2023/04/15 03:24:25;;;;;;;21.70;14.82;;;;;;;7.63;73.68;100701.47;5077668;28;20470;-47
2023/04/15 03:26:50;;;;;;;20.90;15.35;;;;;;;7.67;73.88;100718.22;5094938;28;20035;-44
2023/04/15 03:29:15;;;;;;;22.60;15.10;;;;;;;7.65;73.89;100724.84;5097148;28;20040;-44
2023/04/15 03:31:41;;;;;;;21.95;15.77;;;;;;;7.59;73.71;100716.94;5097219;28;20487;-43
2023/04/15 03:34:06;;;;;;;21.27;15.32;;;;;;;7.59;73.96;100723.25;5097536;28;20028;-47
2023/04/15 03:36:34;;;;;;;21.27;15.00;;;;;;;7.57;74.29;100721.91;5097849;28;20031;-44
2023/04/15 03:39:00;;;;;;;22.67;15.98;;;;;;;7.52;74.45;100731.03;5097490;28;20052;-44
2023/04/15 03:41:27;;;;;;;21.92;15.63;;;;;;;7.50;74.75;100736.00;5097674;28;20057;-46
2023/04/15 03:43:52;;;;;;;22.05;15.23;;;;;;;7.45;75.61;100731.38;5097759;28;20046;-44
2023/04/15 03:46:18;;;;;;;20.30;14.57;;;;;;;7.46;75.89;100733.00;5092829;28;20028;-44
2023/04/15 03:48:43;;;;;;;22.35;15.52;;;;;;;7.46;75.03;100744.03;5094468;28;20030;-43
2023/04/15 03:51:08;;;;;;;21.70;15.00;;;;;;;7.45;75.22;100742.38;5094505;28;20156;-43
2023/04/15 03:53:34;;;;;;;22.75;15.57;;;;;;;7.47;75.75;100747.59;5094358;28;20483;-46
2023/04/15 03:55:59;;;;;;;22.27;15.77;;;;;;;7.43;75.37;100747.34;5094152;28;20023;-45
2023/04/15 03:58:25;;;;;;;21.60;15.93;;;;;;;7.41;75.81;100754.25;5094012;28;20127;-44
2023/04/15 04:00:50;;;;;;;21.30;15.25;;;;;;;7.38;75.26;100749.31;5094133;28;20024;-47
2023/04/15 04:03:16;;;;;;;22.77;15.38;;;;;;;7.37;76.05;100756.75;5081688;28;20460;-42
2023/04/15 04:05:42;;;;;;;22.25;15.60;;;;;;;7.37;76.78;100764.19;5073637;28;20051;-45
2023/04/15 04:08:08;;;;;;;22.50;15.88;;;;;;;7.35;76.00;100764.47;5073794;28;20048;-43
2023/04/15 04:10:33;;;;;;;21.60;15.13;;;;;;;7.36;76.80;100770.81;5073863;28;20090;-43
2023/04/15 04:12:59;;;;;;;23.70;15.90;;;;;;;7.33;76.70;100767.50;5073632;28;20134;-41
2023/04/15 04:15:25;;;;;;;23.08;15.50;;;;;;;7.37;77.00;100777.97;5073605;28;20037;-42
2023/04/15 04:17:51;;;;;;;21.80;15.98;;;;;;;7.36;76.62;100781.81;5073859;28;20028;-43
2023/04/15 04:20:16;;;;;;;22.25;15.75;;;;;;;7.31;76.68;100777.97;5073656;28;20029;-43
2023/04/15 04:22:41;;;;;;;21.55;15.52;;;;;;;7.30;77.41;100784.59;5073762;28;20064;-43
2023/04/15 04:25:08;;;;;;;21.63;15.32;;;;;;;7.23;76.88;100780.50;5073389;28;20036;-46
2023/04/15 04:27:34;;;;;;;21.27;15.60;;;;;;;7.25;77.46;100794.81;5073537;28;20035;-45
2023/04/15 04:30:00;;;;;;;22.42;16.80;;;;;;;7.21;77.00;100794.56;5073569;28;20029;-45
2023/04/15 04:32:26;;;;;;;22.17;15.88;;;;;;;7.20;77.63;100803.91;5073531;28;20472;-47
2023/04/15 04:34:51;;;;;;;22.83;16.13;;;;;;;7.18;77.39;100804.22;5073595;28;20036;-46
2023/04/15 04:37:16;;;;;;;23.33;16.00;;;;;;;7.14;77.69;100807.81;5073491;28;20369;-43
2023/04/15 04:39:42;;;;;;;22.50;15.95;;;;;;;7.13;78.26;100804.22;5072792;28;20078;-43
2023/04/15 04:42:07;;;;;;;22.63;16.13;;;;;;;7.08;77.89;100807.00;5068356;28;20032;-43
2023/04/15 04:44:32;;;;;;;22.52;16.23;;;;;;;7.03;78.07;100816.13;5073096;28;20592;-44
2023/04/15 04:46:58;;;;;;;22.73;16.10;;;;;;;6.97;78.22;100827.41;5073133;28;20032;-44
2023/04/15 04:49:23;;;;;;;24.08;15.65;;;;;;;6.99;78.76;100828.78;5073298;28;20101;-44
2023/04/15 04:51:48;;;;;;;22.23;15.85;;;;;;;6.99;78.79;100828.78;5072779;28;20431;-43
2023/04/15 04:54:14;;;;;;;22.33;15.77;;;;;;;7.01;79.92;100828.50;5073125;28;20043;-43
2023/04/15 04:56:39;;;;;;;22.90;15.65;;;;;;;7.03;79.56;100832.63;5071661;28;20028;-44
2023/04/15 04:59:05;;;;;;;25.15;16.00;;;;;;;7.05;79.32;100834.28;5072612;28;20029;-46
2023/04/15 05:01:31;;;;;;;22.17;15.82;;;;;;;7.00;79.02;100835.13;5072784;28;20415;-43
2023/04/15 05:03:56;;;;;;;22.65;15.60;;;;;;;6.98;78.88;100843.66;5072976;28;20020;-43
2023/04/15 05:06:21;;;;;;;21.15;15.20;;;;;;;6.99;79.50;100848.03;5072776;28;20110;-43
2023/04/15 05:08:47;;;;;;;22.92;16.63;;;;;;;6.95;79.57;100838.72;5072934;28;20028;-43
2023/04/15 05:11:12;;;;;;;23.25;15.80;;;;;;;6.93;80.37;100848.34;5072694;28;20028;-43
2023/04/15 05:13:37;;;;;;;22.13;15.90;;;;;;;6.92;79.51;100850.25;5072759;28;20056;-48
2023/04/15 05:16:04;;;;;;;22.67;15.27;;;;;;;6.93;80.27;100856.59;5072427;28;20481;-44
2023/04/15 05:18:30;;;;;;;23.67;15.40;;;;;;;6.92;80.17;100860.47;5072670;28;20111;-44
2023/04/15 05:20:55;;;;;;;22.02;15.35;;;;;;;6.94;80.74;100866.50;5072590;28;20162;-43
2023/04/15 05:23:20;;;;;;;22.23;15.15;;;;;;;6.93;80.36;100865.66;5072367;28;20033;-42
2023/04/15 05:25:46;;;;;;;21.83;15.05;;;;;;;6.94;80.59;100867.31;5072365;28;20500;-43
2023/04/15 05:28:11;;;;;;;22.15;14.85;;;;;;;6.94;80.73;100878.31;5072272;28;20040;-44
2023/04/15 05:30:36;;;;;;;22.63;15.40;;;;;;;6.93;80.92;100881.38;5072583;28;20028;-45
2023/04/15 05:33:02;;;;;;;22.83;15.60;;;;;;;6.96;81.38;100883.53;5072290;28;20032;-43
2023/04/15 05:35:28;;;;;;;23.00;15.20;;;;;;;6.97;80.95;100885.19;5070802;28;20020;-42
2023/04/15 05:37:53;;;;;;;22.33;15.13;;;;;;;7.03;81.43;100900.59;5069711;28;20016;-43
2023/04/15 05:40:19;;;;;;;22.83;14.77;;;;;;;7.04;80.86;100891.19;5072071;28;20384;-44
2023/04/15 05:42:44;;;;;;;22.67;15.38;;;;;;;7.06;81.15;100893.69;5072207;28;20032;-44
2023/04/15 05:45:10;;;;;;;21.23;15.35;;;;;;;7.13;80.87;100910.72;5072126;28;20052;-43
2023/04/15 05:47:36;;;;;;;22.17;15.50;;;;;;;7.17;81.33;100907.13;5072213;28;20032;-43
2023/04/15 05:50:02;;;;;;;22.50;15.55;;;;;;;7.21;81.21;100906.56;5072224;28;20494;-44
2023/04/15 05:52:27;;;;;;;22.55;15.80;;;;;;;7.22;81.57;100917.28;5072001;28;20032;-44
2023/04/15 05:54:53;;;;;;;22.75;16.17;;;;;;;7.23;81.19;100921.66;5070679;28;20025;-44
2023/04/15 05:57:18;;;;;;;22.73;15.77;;;;;;;7.27;82.36;100922.78;5070456;28;20478;-44
2023/04/15 05:59:43;;;;;;;21.95;15.30;;;;;;;7.26;80.81;100920.28;5071667;28;20056;-43
2023/04/15 06:02:09;;;;;;;22.58;15.57;;;;;;;7.28;80.95;100920.81;5072012;28;20032;-44
2023/04/15 06:04:34;;;;;;;23.08;16.88;;;;;;;7.28;80.94;100920.81;5071919;28;20025;-44
2023/04/15 06:07:00;;;;;;;22.80;16.20;;;;;;;7.32;81.03;100930.19;5071724;28;20119;-45
2023/04/15 06:09:25;;;;;;;22.58;16.30;;;;;;;7.35;81.42;100932.34;5070341;28;20082;-44
2023/04/15 06:11:51;;;;;;;23.35;16.67;;;;;;;7.35;80.78;100935.09;5070975;28;20028;-44
2023/04/15 06:14:16;;;;;;;23.02;15.98;;;;;;;7.39;81.60;100938.94;5071644;28;20029;-44
2023/04/15 06:16:42;;;;;;;22.98;16.52;;;;;;;7.39;81.19;100946.38;5071719;28;20167;-45
2023/04/15 06:19:07;;;;;;;22.17;16.27;;;;;;;7.36;81.65;100952.44;5070446;28;20767;-46
2023/04/15 06:21:32;;;;;;;22.83;16.42;;;;;;;7.42;81.42;100954.88;5071801;28;20035;-45
2023/04/15 06:24:02;;;;;;;22.10;16.45;;;;;;;7.55;81.40;100967.22;5071704;28;20021;-44
2023/04/15 06:26:27;;;;;;;22.83;16.52;;;;;;;7.68;81.05;100962.19;5071599;28;20039;-45
2023/04/15 06:28:53;;;;;;;23.42;16.77;;;;;;;7.73;80.83;100970.44;5071048;28;20032;-45
2023/04/15 06:31:18;;;;;;;23.23;16.67;;;;;;;7.74;80.89;100969.34;5071537;28;20214;-46
2023/04/15 06:33:43;;;;;;;22.23;16.55;;;;;;;7.84;80.53;100972.00;5071376;28;20409;-46
2023/04/15 06:36:08;;;;;;;23.90;17.23;;;;;;;7.86;80.66;100982.75;5067553;28;20021;-45
2023/04/15 06:38:34;;;;;;;24.10;16.65;;;;;;;7.83;80.60;100964.88;5071371;28;20486;-45
2023/04/15 06:40:59;;;;;;;22.95;16.50;;;;;;;8.00;80.86;100983.75;5070179;28;20056;-45
2023/04/15 06:43:25;;;;;;;23.40;16.73;;;;;;;8.06;80.97;100995.56;5071673;28;20115;-47
2023/04/15 06:45:50;;;;;;;22.27;16.90;;;;;;;8.12;80.64;100994.44;5071600;28;20051;-44
2023/04/15 06:48:16;;;;;;;23.27;16.48;;;;;;;8.17;80.74;101001.84;5071617;28;20120;-44
2023/04/15 06:50:41;;;;;;;23.00;17.17;;;;;;;8.23;80.32;101012.53;5071190;28;20465;-44
2023/04/15 06:53:07;;;;;;;23.20;16.35;;;;;;;8.35;80.72;101016.88;5071411;28;20028;-47
2023/04/15 06:55:33;;;;;;;21.85;16.45;;;;;;;8.47;79.90;101011.84;5071435;28;20561;-47
2023/04/15 06:57:58;;;;;;;23.17;16.42;;;;;;;8.59;80.41;101025.28;5071543;28;20031;-47
2023/04/15 07:00:24;;;;;;;22.33;16.35;;;;;;;8.72;80.17;101023.78;5071415;28;20021;-42
2023/04/15 07:02:50;;;;;;;22.85;15.90;;;;;;;8.87;80.35;101033.84;5071290;28;20029;-44
2023/04/15 07:05:15;;;;;;;23.40;16.45;;;;;;;8.94;78.97;101028.81;5067551;28;20082;-44
2023/04/15 07:07:41;;;;;;;22.45;15.85;;;;;;;8.99;77.88;101026.03;5071079;28;20662;-43
2023/04/15 07:10:07;;;;;;;21.60;15.90;;;;;;;9.09;78.13;101033.38;5087594;28;20035;-44
2023/04/15 07:12:34;;;;;;;22.95;16.40;;;;;;;8.92;77.43;101013.66;5089948;28;20028;-44
2023/04/15 07:14:59;;;;;;;22.35;16.27;;;;;;;9.10;77.43;101043.28;5091525;28;20428;-48
2023/04/15 07:17:24;;;;;;;22.48;16.92;;;;;;;9.02;77.12;101025.41;5091356;28;20534;-44
2023/04/15 07:19:49;;;;;;;22.52;15.80;;;;;;;9.23;76.64;101041.78;5091243;28;20471;-45
2023/04/15 07:22:15;;;;;;;23.02;15.95;;;;;;;9.27;77.27;101047.53;5090397;28;20436;-43
2023/04/15 07:24:40;;;;;;;22.00;15.85;;;;;;;9.33;76.80;101049.94;5095095;28;20123;-46
2023/04/15 07:27:05;;;;;;;22.88;15.60;;;;;;;9.36;77.22;101063.19;5093734;28;20026;-44
2023/04/15 07:29:31;;;;;;;23.20;16.50;;;;;;;9.39;77.00;101061.78;5095018;28;20548;-46
2023/04/15 07:31:56;;;;;;;22.35;15.80;;;;;;;9.48;76.37;101070.25;5094946;28;20028;-43
2023/04/15 07:34:21;;;;;;;21.48;15.75;;;;;;;9.50;76.23;101074.34;5094565;28;20032;-44
2023/04/15 07:36:50;;;;;;;22.27;15.32;;;;;;;9.55;76.14;101072.63;5093477;28;20032;-44
2023/04/15 07:39:16;;;;;;;23.75;16.35;;;;;;;9.58;76.02;101086.69;5094746;28;20048;-46
2023/04/15 07:41:42;;;;;;;22.63;15.80;;;;;;;9.65;76.61;101086.31;5094667;28;20032;-46
2023/04/15 07:44:08;;;;;;;22.05;15.32;;;;;;;9.72;76.90;101091.50;5094837;28;20149;-43
2023/04/15 07:46:33;;;;;;;22.27;15.05;;;;;;;9.83;76.81;101087.50;5094678;28;20470;-44
2023/04/15 07:48:58;;;;;;;23.42;15.50;;;;;;;9.97;76.29;101095.91;5088955;28;20043;-47
2023/04/15 07:51:24;;;;;;;22.77;15.55;;;;;;;10.01;75.50;101104.41;5074408;28;20029;-43
2023/04/15 07:53:49;;;;;;;22.27;15.15;;;;;;;10.07;74.50;101094.94;5074270;28;20157;-45
2023/04/15 07:56:15;;;;;;;21.50;15.68;;;;;;;10.14;73.83;101103.72;5074305;28;20093;-45
2023/04/15 07:58:41;;;;;;;21.25;15.02;;;;;;;10.15;74.67;101095.09;5073164;28;20031;-43
2023/04/15 08:01:06;;;;;;;22.27;14.60;;;;;;;10.21;73.71;101100.56;5069028;28;20463;-45
2023/04/15 08:03:32;;;;;;;21.00;14.35;;;;;;;10.28;72.54;101117.63;5073624;28;20032;-44
2023/04/15 08:05:58;;;;;;;20.85;14.25;;;;;;;10.37;72.68;101106.69;5074110;28;20030;-43
2023/04/15 08:08:24;;;;;;;21.40;13.85;;;;;;;10.48;72.46;101108.22;5074468;28;20028;-46
2023/04/15 08:10:49;;;;;;;21.00;14.60;;;;;;;10.55;72.23;101121.69;5074235;28;20028;-45
2023/04/15 08:13:15;;;;;;;19.85;13.00;;;;;;;10.60;69.55;101108.63;5073993;28;20037;-47
2023/04/15 08:15:40;;;;;;;18.63;12.32;;;;;;;10.76;69.40;101120.28;5074056;28;20043;-45
2023/04/15 08:18:06;;;;;;;19.00;12.27;;;;;;;10.82;68.02;101122.94;5074084;28;20033;-47
2023/04/15 08:20:31;;;;;;;20.60;12.85;;;;;;;10.80;67.66;101117.72;5073461;28;20029;-47
2023/04/15 08:22:57;;;;;;;20.13;12.88;;;;;;;10.84;66.92;101120.72;5073685;28;20108;-44
2023/04/15 08:25:22;;;;;;;19.20;12.70;;;;;;;10.85;68.38;101125.94;5074077;28;20024;-44
2023/04/15 08:27:47;;;;;;;19.10;12.02;;;;;;;10.95;67.39;101132.44;5073678;28;20469;-44
2023/04/15 08:30:13;;;;;;;20.30;12.90;;;;;;;10.95;67.19;101133.28;5073765;28;20025;-44
2023/04/15 08:32:38;;;;;;;19.30;12.50;;;;;;;10.94;66.65;101134.38;5072981;28;20020;-44
2023/04/15 08:35:04;;;;;;;20.00;12.02;;;;;;;11.00;65.77;101158.09;5072408;28;20432;-44
2023/04/15 08:37:30;;;;;;;18.23;11.57;;;;;;;11.07;65.39;101158.50;5073220;28;20032;-44
2023/04/15 08:39:55;;;;;;;18.15;11.80;;;;;;;11.02;65.16;101147.53;5073159;28;20041;-46
2023/04/15 08:42:30;;;;;;;18.73;12.30;;;;;;;11.07;64.65;101163.25;5073480;28;20055;-46
2023/04/15 08:44:55;;;;;;;20.17;12.65;;;;;;;11.02;64.89;101160.53;5073636;28;20077;-45
2023/04/15 08:47:26;;;;;;;18.98;12.23;;;;;;;11.08;65.01;101159.34;5073180;28;20119;-46
2023/04/15 08:49:54;;;;;;;19.10;12.50;;;;;;;11.08;64.60;101171.25;5073453;28;20042;-46
2023/04/15 08:52:20;;;;;;;18.52;12.48;;;;;;;11.14;64.38;101179.47;5072702;28;20035;-43
2023/04/15 08:54:46;;;;;;;20.08;12.85;;;;;;;11.08;65.10;101171.25;5073367;28;20027;-44
2023/04/15 08:57:13;;;;;;;19.85;12.32;;;;;;;11.23;64.41;101183.22;5072963;28;20397;-45
2023/04/15 08:59:40;;;;;;;20.40;13.55;;;;;;;11.14;64.79;101185.81;5073151;28;20100;-43
2023/04/15 09:02:06;;;;;;;20.63;13.50;;;;;;;11.15;64.45;101193.00;5072033;28;20077;-46
2023/04/15 09:04:31;;;;;;;20.00;12.48;;;;;;;11.26;64.65;101201.97;5071823;28;20029;-44
2023/04/15 09:06:57;;;;;;;19.58;12.85;;;;;;;11.21;64.45;101193.75;5071613;28;20036;-43
2023/04/15 09:09:22;;;;;;;21.52;13.02;;;;;;;11.29;65.03;101200.56;5071652;28;20174;-44
2023/04/15 09:11:48;;;;;;;18.40;12.65;;;;;;;11.28;64.55;101201.69;5071023;28;20440;-44
2023/04/15 09:14:14;;;;;;;20.10;13.60;;;;;;;11.31;63.18;101209.38;5071394;28;20570;-42
2023/04/15 09:16:56;;;;;;;20.40;12.30;;;;;;;11.34;63.69;101217.09;5071083;28;20470;-42
2023/04/15 09:19:23;;;;;;;19.52;12.45;;;;;;;11.38;63.48;101218.13;5070978;28;20082;-44
2023/04/15 09:21:55;;;;;;;20.48;12.70;;;;;;;11.24;63.25;101205.06;5071236;28;20041;-45
2023/04/15 09:24:21;;;;;;;18.67;12.35;;;;;;;11.42;63.24;101218.34;5070834;28;20032;-43
2023/04/15 09:26:46;;;;;;;19.73;12.30;;;;;;;11.46;63.29;101225.75;5071106;28;20446;-43
2023/04/15 09:29:14;;;;;;;19.48;12.88;;;;;;;11.49;64.04;101232.63;5069373;28;20035;-43
2023/04/15 09:31:41;;;;;;;17.95;11.27;;;;;;;11.58;62.94;101227.19;5069277;28;20036;-43
2023/04/15 09:34:06;;;;;;;18.65;12.05;;;;;;;11.69;62.73;101236.97;5070678;28;20056;-43
2023/04/15 09:36:51;;;;;;;19.90;12.50;;;;;;;11.74;63.20;101238.84;5070305;28;20465;-42
2023/04/15 09:39:16;;;;;;;19.48;12.10;;;;;;;11.77;62.66;101236.28;5070268;28;20098;-43
2023/04/15 09:41:43;;;;;;;19.15;11.50;;;;;;;11.80;60.39;101248.72;5070534;28;20032;-44
2023/04/15 09:44:22;;;;;;;18.80;11.73;;;;;;;11.75;61.24;101235.78;5070514;28;20028;-45
2023/04/15 09:46:47;;;;;;;18.15;11.25;;;;;;;11.91;60.63;101252.13;5068290;28;20024;-43
2023/04/15 09:49:13;;;;;;;18.73;12.32;;;;;;;11.92;60.64;101245.47;5070698;28;20079;-44
2023/04/15 09:51:38;;;;;;;18.00;11.82;;;;;;;11.95;61.67;101248.44;5070549;28;20473;-45
2023/04/15 09:54:04;;;;;;;19.17;12.45;;;;;;;12.00;61.44;101250.34;5070717;28;20868;-44
2023/04/15 09:56:40;;;;;;;20.30;11.73;;;;;;;12.00;60.95;101267.78;5070548;28;20065;-44
2023/04/15 09:59:06;;;;;;;18.30;11.57;;;;;;;12.00;60.08;101258.66;5070440;28;20031;-44
2023/04/15 10:01:31;;;;;;;17.65;11.35;;;;;;;11.97;60.44;101267.53;5070413;28;20032;-43
2023/04/15 10:03:57;;;;;;;18.02;11.70;;;;;;;11.98;59.53;101272.00;5070557;28;20594;-45
2023/04/15 10:06:25;;;;;;;18.10;11.55;;;;;;;11.85;59.43;101245.84;5070418;28;20087;-44
2023/04/15 10:08:51;;;;;;;17.23;11.18;;;;;;;11.99;59.30;101260.63;5070991;28;20035;-44
2023/04/15 10:11:18;;;;;;;17.15;11.05;;;;;;;12.03;59.61;101263.59;5069072;28;20393;-43
2023/04/15 10:13:45;;;;;;;16.90;11.10;;;;;;;12.09;60.05;101267.91;5070438;28;20036;-43
2023/04/15 10:16:13;;;;;;;17.05;11.18;;;;;;;12.17;59.53;101280.25;5070406;28;20124;-43
2023/04/15 10:18:44;;;;;;;17.60;11.10;;;;;;;12.19;57.70;101275.19;5070175;28;20036;-43
2023/04/15 10:21:10;;;;;;;15.07;10.35;;;;;;;12.29;58.75;101272.22;5070316;28;20027;-43
2023/04/15 10:23:35;;;;;;;17.08;11.05;;;;;;;12.27;58.58;101277.28;5070252;28;20025;-43
2023/04/15 10:26:03;;;;;;;15.15;10.30;;;;;;;12.34;58.79;101271.31;5070024;28;20025;-42
2023/04/15 10:28:28;;;;;;;15.35;10.52;;;;;;;12.37;58.80;101272.66;5069745;28;20051;-42
2023/04/15 10:30:54;;;;;;;16.70;10.45;;;;;;;12.39;57.26;101274.00;5069968;28;20029;-42
2023/04/15 10:33:22;;;;;;;15.30;10.20;;;;;;;12.43;58.06;101272.22;5070076;28;20024;-44
2023/04/15 10:35:48;;;;;;;14.38;9.90;;;;;;;12.42;56.80;101273.34;5070123;28;20470;-43
2023/04/15 10:38:37;;;;;;;14.50;10.18;;;;;;;12.52;58.18;101277.91;5069690;28;20017;-43
2023/04/15 10:41:21;;;;;;;15.40;10.20;;;;;;;12.58;58.06;101279.41;5069687;28;20040;-42
2023/04/15 10:43:52;;;;;;;16.60;10.40;;;;;;;12.61;58.27;101289.09;5069753;28;20032;-43
2023/04/15 10:46:20;;;;;;;16.30;10.30;;;;;;;12.60;57.25;101293.00;5068358;28;20039;-42
2023/04/15 10:48:47;;;;;;;14.75;10.38;;;;;;;12.59;57.64;101294.13;5069555;28;20039;-43
2023/04/15 10:51:12;;;;;;;15.30;10.32;;;;;;;12.56;57.12;101297.53;5069418;28;20425;-43
2023/04/15 10:53:41;;;;;;;16.00;9.98;;;;;;;12.50;57.75;101291.25;5070945;28;20025;-43
2023/04/15 10:56:07;;;;;;;16.33;10.52;;;;;;;12.54;57.66;101283.13;5089967;28;20036;-43
2023/04/15 10:58:44;;;;;;;15.20;10.38;;;;;;;12.61;57.82;101305.75;5092036;28;20024;-43
2023/04/15 11:01:09;;;;;;;15.93;10.63;;;;;;;12.57;56.90;101291.66;5093881;28;20111;-43
2023/04/15 11:03:37;;;;;;;16.20;11.02;;;;;;;12.64;57.40;101308.72;5093685;28;20548;-43
2023/04/15 11:06:03;;;;;;;18.10;10.85;;;;;;;12.66;57.80;101304.84;5094228;28;20091;-43
2023/04/15 11:08:55;;;;;;;15.50;10.48;;;;;;;12.68;58.15;101303.38;5093747;28;20465;-42
2023/04/15 11:11:20;;;;;;;17.00;10.75;;;;;;;12.68;57.80;101305.31;5093492;28;20039;-43